Doebay, Washington
Current Conditions -  °F | °C
As of 5:15 PM on Tuesday 21 Oct 2014 (Local Time) from KORS Reporting Station
Broken Clouds Broken Clouds  
Wind Chill: 59°   Ceiling: 2600
Heat Index: 59°   Visibility: 10mi
Dew Point: 50°   Wind: 12mph
Humidity: 72%   Direction: 180°S
Pressure: 29.77"   Gusts: 22mph
Location:  48.6597°N, 122.828°W
Report Text: KORS 220015Z AUTO 18010G19KT 030V040 10SM BKN026 15/10 A2977 RMK AO2
Loading
Personal Weather Stations






























Interactive Weather Map
Tropical Storm Tracking
New forecast layout! Learn more

10-Day Weather Forecast

Advertisements
Track Severe Weather on mobile